TimePDT,TemperatureF,Dew PointF,Humidity,Sea Level PressureIn,VisibilityMPH,Wind Direction,Wind SpeedMPH,Gust SpeedMPH,PrecipitationIn,Events,Conditions,WindDirDegrees,DateUTC
12:26 AM,51.8,48.2,88,29.89,10.0,ENE,3.5,-,N/A,,Partly Cloudy,60,2013-06-15 07:26:00
12:41 AM,51.8,48.2,88,29.89,10.0,ENE,4.6,-,N/A,,Mostly Cloudy,70,2013-06-15 07:41:00
12:50 AM,51.8,48.2,88,29.89,10.0,ENE,5.8,-,N/A,,Scattered Clouds,70,2013-06-15 07:50:00
12:53 AM,52.0,48.9,89,29.88,10.0,ENE,4.6,-,N/A,,Scattered Clouds,60,2013-06-15 07:53:00
1:40 AM,51.8,48.2,88,29.89,10.0,Calm,Calm,-,N/A,,Mostly Cloudy,0,2013-06-15 08:40:00
1:53 AM,52.0,48.9,89,29.88,10.0,Calm,Calm,-,N/A,,Overcast,0,2013-06-15 08:53:00
2:53 AM,53.1,50.0,89,29.88,9.0,NE,4.6,-,N/A,,Overcast,40,2013-06-15 09:53:00
3:53 AM,53.1,50.0,89,29.88,8.0,Calm,Calm,-,N/A,,Overcast,0,2013-06-15 10:53:00
4:53 AM,53.1,50.0,89,29.89,7.0,North,3.5,-,N/A,,Overcast,350,2013-06-15 11:53:00
5:53 AM,52.0,51.1,97,29.91,4.0,South,4.6,-,N/A,,Overcast,180,2013-06-15 12:53:00
6:01 AM,51.8,51.8,100,29.91,4.0,South,5.8,-,N/A,,Overcast,170,2013-06-15 13:01:00
6:46 AM,51.8,48.2,88,29.92,5.0,SE,8.1,-,N/A,,Overcast,140,2013-06-15 13:46:00
6:53 AM,51.1,48.9,92,29.92,5.0,ESE,6.9,-,N/A,,Overcast,120,2013-06-15 13:53:00
7:34 AM,51.8,48.2,88,29.94,10.0,SSE,8.1,-,N/A,,Overcast,150,2013-06-15 14:34:00
7:53 AM,52.0,48.0,86,29.95,10.0,East,5.8,-,N/A,,Overcast,90,2013-06-15 14:53:00
8:53 AM,53.1,48.0,83,29.96,10.0,Calm,Calm,-,N/A,,Overcast,0,2013-06-15 15:53:00
9:53 AM,55.0,48.0,77,29.97,10.0,Calm,Calm,-,N/A,,Overcast,0,2013-06-15 16:53:00
10:11 AM,55.4,48.2,77,29.97,10.0,SSE,5.8,-,N/A,,Overcast,160,2013-06-15 17:11:00
10:53 AM,55.9,48.0,75,29.99,10.0,SSE,5.8,-,N/A,,Overcast,160,2013-06-15 17:53:00
11:53 AM,60.1,48.9,67,29.99,10.0,South,9.2,-,N/A,,Mostly Cloudy,170,2013-06-15 18:53:00
12:49 PM,60.8,48.2,63,30.00,10.0,SSW,4.6,-,N/A,,Mostly Cloudy,210,2013-06-15 19:49:00
12:53 PM,61.0,48.9,64,30.00,10.0,South,9.2,-,N/A,,Mostly Cloudy,170,2013-06-15 19:53:00
1:00 PM,62.6,48.2,59,30.00,10.0,South,10.4,-,N/A,,Scattered Clouds,180,2013-06-15 20:00:00
1:53 PM,61.0,48.0,62,30.00,10.0,South,4.6,-,N/A,,Partly Cloudy,190,2013-06-15 20:53:00
2:53 PM,62.1,48.9,62,30.00,10.0,South,10.4,-,N/A,,Scattered Clouds,170,2013-06-15 21:53:00
3:06 PM,60.8,48.2,63,30.00,10.0,South,9.2,-,N/A,,Mostly Cloudy,190,2013-06-15 22:06:00
3:46 PM,59.0,48.2,67,30.00,10.0,SSW,12.7,-,N/A,,Overcast,210,2013-06-15 22:46:00
3:53 PM,57.9,48.9,72,30.00,10.0,SW,10.4,-,N/A,,Overcast,230,2013-06-15 22:53:00
4:53 PM,57.9,48.9,72,30.00,10.0,SW,9.2,-,N/A,,Overcast,220,2013-06-15 23:53:00
5:53 PM,57.0,50.0,77,30.00,10.0,SSW,8.1,-,N/A,,Overcast,210,2013-06-16 00:53:00
6:53 PM,55.9,50.0,80,30.01,10.0,South,8.1,-,N/A,,Overcast,190,2013-06-16 01:53:00
7:44 PM,55.4,50.0,82,30.02,10.0,SE,6.9,-,N/A,,Overcast,140,2013-06-16 02:44:00
7:53 PM,55.0,50.0,83,30.02,10.0,ESE,9.2,-,N/A,,Overcast,120,2013-06-16 02:53:00
8:53 PM,53.1,48.9,86,30.02,10.0,ESE,8.1,-,N/A,,Overcast,110,2013-06-16 03:53:00
9:53 PM,53.1,48.9,86,30.04,10.0,ESE,5.8,-,N/A,,Overcast,120,2013-06-16 04:53:00
10:53 PM,53.1,48.9,86,30.05,10.0,ENE,4.6,-,N/A,,Overcast,60,2013-06-16 05:53:00
11:53 PM,53.1,48.9,86,30.05,10.0,ESE,3.5,-,N/A,,Overcast,120,2013-06-16 06:53:00